OK88 weather

CLOSED Silverwood Ultralightport
Broken Arrow, Oklahoma, United States

Public forecast

Using degrees Fahrenheit for public forecast. Weather courtesy of forecast.io.

Closest aviation weather report (METAR) to Silverwood Ultralightport

Closest report is Richard Lloyd Jones Jr Airport, 7.1 nm (13.1 km) WNW. Retrieved 2019/10/14 13:53 UTC (41 minutes ago):

KRVS 141353Z 00000KT 10SM CLR 12/10 A3003 RMK AO2 SLP173 T01220100

Closest aviation forecast (TAF) to Silverwood Ultralightport

Closest forecast is Richard Lloyd Jones Jr Airport, 7.1 nm (13.1 km) WNW. Retrieved 2019/10/14 12:22 UTC (2 hours ago):

TAF KRVS 141120Z 1412/1512 00000KT P6SM SKC FM142100 16010KT P6SM SCT250 FM150000 16007KT P6SM FEW250 FM151000 17006KT P6SM BKN020